createdAt,value
2018-05-07T03:01:06.421Z,994.53
2018-05-07T03:03:06.683Z,994.48
2018-05-07T03:04:07.643Z,994.48
2018-05-07T03:05:07.336Z,994.45
2018-05-07T03:06:07.259Z,994.46
2018-05-07T03:07:07.523Z,994.45
2018-05-07T03:08:07.701Z,994.44
2018-05-07T03:09:08.011Z,994.41
2018-05-07T03:10:08.439Z,994.44
2018-05-07T03:11:08.619Z,994.38
2018-05-07T03:12:08.333Z,994.41
2018-05-07T03:13:09.100Z,994.41
2018-05-07T03:14:06.738Z,994.40
2018-05-07T03:15:06.495Z,994.40
2018-05-07T03:16:06.716Z,994.39
2018-05-07T03:17:06.921Z,994.38
2018-05-07T03:18:07.050Z,994.32
2018-05-07T03:19:07.090Z,994.37
2018-05-07T03:20:07.338Z,994.32
2018-05-07T03:21:07.400Z,994.32
2018-05-07T03:22:07.827Z,994.26
2018-05-07T03:23:08.354Z,994.27
2018-05-07T03:24:18.618Z,994.27
2018-05-07T03:25:10.518Z,994.28
2018-05-07T03:26:11.347Z,994.30
2018-05-07T03:44:06.105Z,994.19
2018-05-07T03:47:06.934Z,994.22
2018-05-07T03:48:07.338Z,994.21
2018-05-07T03:49:06.986Z,994.22
2018-05-07T03:50:07.357Z,994.21
2018-05-07T03:51:08.100Z,994.17
2018-05-07T03:52:08.393Z,994.16
2018-05-07T03:53:15.717Z,994.16
2018-05-07T04:00:42.809Z,994.18
2018-05-07T04:05:26.202Z,994.19
2018-05-07T04:06:16.591Z,994.13
2018-05-07T04:09:15.482Z,994.13
2018-05-07T04:10:16.622Z,994.14
2018-05-07T04:15:22.692Z,994.12
2018-05-07T04:16:06.970Z,994.15
2018-05-07T04:17:05.301Z,994.13
2018-05-07T04:18:05.210Z,994.15
2018-05-07T04:19:05.691Z,994.13
2018-05-07T04:20:06.635Z,994.16
2018-05-07T04:21:06.420Z,994.13
2018-05-07T04:22:07.419Z,994.16
2018-05-07T04:23:08.388Z,994.16
2018-05-07T04:26:30.624Z,994.19
2018-05-07T04:27:24.517Z,994.19
2018-05-07T04:28:21.556Z,994.24
2018-05-07T04:29:21.588Z,994.25
2018-05-07T04:30:22.513Z,994.22
2018-05-07T04:31:22.385Z,994.23
2018-05-07T04:32:21.937Z,994.23
2018-05-07T04:33:23.586Z,994.22
2018-05-07T04:34:24.052Z,994.23
2018-05-07T04:35:25.638Z,994.20
2018-05-07T04:36:23.183Z,994.26
2018-05-07T04:37:23.113Z,994.22
2018-05-07T04:38:23.522Z,994.27
2018-05-07T04:39:22.565Z,994.25
2018-05-07T04:40:21.622Z,994.28
2018-05-07T04:41:23.109Z,994.26
2018-05-07T04:42:22.138Z,994.28
2018-05-07T04:43:21.915Z,994.25
2018-05-07T04:44:22.329Z,994.26
2018-05-07T04:45:22.339Z,994.28
2018-05-07T04:46:23.490Z,994.35
2018-05-07T04:47:22.820Z,994.28
2018-05-07T04:48:23.596Z,994.26
2018-05-07T04:49:23.736Z,994.28
2018-05-07T04:50:23.480Z,994.27
2018-05-07T04:51:23.340Z,994.24
2018-05-07T04:52:23.808Z,994.27
2018-05-07T04:53:23.589Z,994.23
2018-05-07T04:54:24.744Z,994.26
2018-05-07T04:55:24.369Z,994.26
2018-05-07T04:56:24.507Z,994.28
2018-05-07T04:57:24.343Z,994.25
2018-05-07T04:58:24.613Z,994.28
2018-05-07T04:59:25.634Z,994.30
2018-05-07T05:00:25.270Z,994.29
2018-05-07T05:01:25.230Z,994.27
2018-05-07T05:02:26.059Z,994.27
2018-05-07T05:05:07.796Z,994.32
2018-05-07T05:06:06.876Z,994.32
2018-05-07T05:07:08.807Z,994.33
2018-05-07T05:08:10.681Z,994.32
2018-05-07T05:09:07.075Z,994.31
2018-05-07T05:10:06.715Z,994.27
2018-05-07T05:11:06.855Z,994.25
2018-05-07T05:12:07.044Z,994.31
2018-05-07T05:13:07.161Z,994.28
2018-05-07T05:14:07.321Z,994.29
2018-05-07T05:15:07.474Z,994.28
2018-05-07T05:16:07.632Z,994.26
2018-05-07T05:17:07.754Z,994.30
2018-05-07T05:18:17.882Z,994.31
2018-05-07T05:19:10.241Z,994.37
2018-05-07T05:20:19.305Z,994.37
2018-05-07T05:22:11.095Z,994.35
2018-05-07T05:23:10.899Z,994.39
2018-05-07T05:24:12.408Z,994.38
2018-05-07T05:25:11.300Z,994.37
2018-05-07T05:26:09.180Z,994.40
2018-05-07T05:27:14.187Z,994.41
2018-05-07T05:28:09.491Z,994.42
2018-05-07T05:29:09.629Z,994.43
2018-05-07T05:30:09.917Z,994.41
2018-05-07T05:31:09.887Z,994.41
2018-05-07T05:32:10.317Z,994.41
2018-05-07T05:33:10.786Z,994.38
2018-05-07T05:34:10.281Z,994.35
2018-05-07T05:35:10.449Z,994.37
2018-05-07T05:36:10.638Z,994.37
2018-05-07T05:40:33.527Z,994.31
2018-05-07T05:43:31.173Z,994.31
2018-05-07T05:44:31.470Z,994.33
2018-05-07T05:45:31.930Z,994.33
2018-05-07T05:46:42.409Z,994.27
2018-05-07T05:47:42.530Z,994.29
2018-05-07T05:48:35.974Z,994.31
2018-05-07T05:49:36.461Z,994.34
2018-05-07T05:50:34.539Z,994.34
2018-05-07T05:51:35.457Z,994.36
2018-05-07T05:52:33.372Z,994.29
2018-05-07T05:53:32.837Z,994.35
2018-05-07T05:54:32.960Z,994.32
2018-05-07T06:00:18.317Z,994.41
2018-05-07T06:01:31.486Z,994.44
2018-05-07T06:02:29.952Z,994.45
2018-05-07T06:15:07.273Z,994.37
2018-05-07T06:16:07.815Z,994.37
2018-05-07T06:17:08.241Z,994.39
2018-05-07T06:18:19.997Z,994.36
2018-05-07T06:19:18.683Z,994.37
2018-05-07T06:20:19.305Z,994.37
2018-05-07T06:21:19.022Z,994.35
2018-05-07T06:22:25.040Z,994.34
2018-05-07T06:27:12.054Z,994.32
2018-05-07T06:28:12.723Z,994.34
2018-05-07T06:29:12.684Z,994.34
2018-05-07T06:30:12.619Z,994.39
2018-05-07T06:31:14.046Z,994.31
2018-05-07T06:32:14.682Z,994.36
2018-05-07T06:35:02.540Z,994.34
2018-05-07T06:35:53.803Z,994.34
2018-05-07T06:36:54.443Z,994.40
2018-05-07T06:37:58.236Z,994.35
2018-05-07T06:38:52.704Z,994.29
2018-05-07T06:43:05.713Z,994.22
2018-05-07T06:50:17.073Z,994.19
2018-05-07T06:51:17.226Z,994.20
2018-05-07T06:52:17.037Z,994.23
2018-05-07T06:57:15.784Z,994.19
2018-05-07T06:58:17.211Z,994.16
2018-05-07T06:59:16.060Z,994.15
2018-05-07T07:00:16.203Z,994.17
2018-05-07T07:01:16.340Z,994.19
2018-05-07T07:02:16.647Z,994.15
2018-05-07T07:03:16.806Z,994.16
2018-05-07T07:04:16.915Z,994.19
2018-05-07T07:05:17.662Z,994.15
2018-05-07T07:06:17.290Z,994.14
2018-05-07T07:07:21.026Z,994.13
2018-05-07T07:08:19.601Z,994.15
2018-05-07T07:09:22.163Z,994.06
2018-05-07T07:10:24.573Z,994.10
2018-05-07T07:11:21.264Z,994.02
2018-05-07T07:12:20.067Z,994.07
2018-05-07T07:13:18.452Z,994.08
2018-05-07T07:14:18.581Z,994.02
2018-05-07T07:15:19.912Z,994.02
2018-05-07T07:16:20.400Z,993.99
2018-05-07T07:17:20.865Z,993.97
2018-05-07T07:18:20.384Z,993.99
2018-05-07T07:19:19.501Z,993.97
2018-05-07T07:20:20.761Z,993.96
2018-05-07T07:21:20.793Z,993.96
2018-05-07T07:22:20.874Z,994.04
2018-05-07T07:23:20.428Z,993.97
2018-05-07T07:24:20.687Z,993.98
2018-05-07T07:25:21.348Z,994.00
2018-05-07T07:26:21.622Z,993.99
2018-05-07T07:27:20.895Z,994.01
2018-05-07T07:28:21.097Z,993.97
2018-05-07T07:29:22.539Z,993.94
2018-05-07T07:30:27.693Z,993.97
2018-05-07T07:31:21.580Z,993.98
2018-05-07T07:32:21.855Z,993.95
2018-05-07T07:33:21.915Z,993.96
2018-05-07T07:34:21.989Z,993.96
2018-05-07T07:35:22.278Z,993.95
2018-05-07T07:36:22.571Z,993.94
2018-05-07T07:37:22.669Z,993.99
2018-05-07T07:38:22.783Z,993.94
2018-05-07T07:39:23.023Z,993.92
2018-05-07T07:40:23.211Z,993.91
2018-05-07T07:41:23.312Z,993.99
2018-05-07T07:42:23.452Z,993.99
2018-05-07T07:43:23.727Z,993.93
2018-05-07T07:44:23.848Z,993.93
2018-05-07T07:45:26.001Z,993.95
2018-05-07T07:46:35.477Z,993.94
2018-05-07T07:47:28.929Z,993.94
2018-05-07T07:48:36.461Z,993.93
2018-05-07T07:49:27.106Z,993.98
2018-05-07T07:50:26.950Z,993.92
2018-05-07T07:52:38.282Z,993.89
2018-05-07T07:55:08.993Z,993.93
2018-05-07T07:56:11.203Z,993.88
2018-05-07T07:57:11.533Z,993.89
2018-05-07T07:58:11.637Z,993.88
2018-05-07T07:59:10.654Z,993.87
2018-05-07T08:00:09.731Z,993.86
2018-05-07T08:01:09.906Z,993.85
2018-05-07T08:02:10.027Z,993.91
2018-05-07T08:03:10.236Z,993.88
2018-05-07T08:04:10.408Z,993.92
2018-05-07T08:05:10.566Z,993.93
2018-05-07T08:06:10.767Z,993.92
2018-05-07T08:07:10.888Z,993.91
2018-05-07T08:08:11.088Z,993.95
2018-05-07T08:09:11.209Z,993.93
2018-05-07T08:10:11.420Z,993.93
2018-05-07T08:11:11.583Z,993.91
2018-05-07T08:12:11.787Z,993.95
2018-05-07T08:13:11.897Z,993.89
2018-05-07T08:14:12.037Z,993.90
2018-05-07T08:15:12.178Z,993.89
2018-05-07T08:16:12.317Z,993.82
2018-05-07T08:17:12.526Z,993.88
2018-05-07T08:18:12.693Z,993.91
2018-05-07T08:19:12.857Z,993.89
2018-05-07T08:20:13.027Z,993.87
2018-05-07T08:21:13.205Z,993.89
2018-05-07T08:22:13.388Z,993.83
2018-05-07T08:23:13.540Z,993.90
2018-05-07T08:24:13.671Z,993.88
2018-05-07T08:25:13.847Z,993.88
2018-05-07T08:26:14.022Z,993.89
2018-05-07T08:27:14.162Z,993.86
2018-05-07T08:28:14.350Z,993.88
2018-05-07T08:29:14.518Z,993.94
2018-05-07T08:30:14.616Z,993.89
2018-05-07T08:31:14.930Z,993.98
2018-05-07T08:32:15.050Z,993.91
2018-05-07T08:33:15.199Z,993.89
2018-05-07T08:34:15.384Z,993.91
2018-05-07T08:35:15.630Z,993.88
2018-05-07T08:36:15.718Z,993.86
2018-05-07T08:37:15.830Z,993.90
2018-05-07T08:38:16.057Z,993.88
2018-05-07T08:39:16.240Z,993.85
2018-05-07T08:40:16.391Z,993.81
2018-05-07T08:41:16.575Z,993.83
2018-05-07T08:42:16.670Z,993.79
2018-05-07T08:43:16.973Z,993.83
2018-05-07T08:44:17.063Z,993.81
2018-05-07T08:45:17.233Z,993.83
2018-05-07T08:46:17.383Z,993.76
2018-05-07T08:47:17.524Z,993.76
2018-05-07T08:48:17.731Z,993.80
2018-05-07T08:49:17.826Z,993.75
2018-05-07T08:50:18.091Z,993.69
2018-05-07T08:51:18.221Z,993.75
2018-05-07T08:52:18.383Z,993.71
2018-05-07T08:53:18.670Z,993.80
2018-05-07T08:54:18.734Z,993.74
2018-05-07T08:55:18.888Z,993.72
2018-05-07T08:56:18.997Z,993.73
2018-05-07T08:57:19.297Z,993.68
2018-05-07T08:58:19.378Z,993.65
2018-05-07T08:59:19.665Z,993.68
2018-05-07T09:00:19.736Z,993.72
2018-05-07T09:01:20.013Z,993.62
2018-05-07T09:02:20.071Z,993.71
2018-05-07T09:03:20.231Z,993.64
2018-05-07T09:04:20.421Z,993.62
2018-05-07T09:05:20.617Z,993.64
2018-05-07T09:06:20.775Z,993.63
2018-05-07T09:07:20.928Z,993.65
2018-05-07T09:08:21.147Z,993.58
2018-05-07T09:09:21.267Z,993.62
2018-05-07T09:10:21.463Z,993.61
2018-05-07T09:11:21.601Z,993.67
2018-05-07T09:12:21.775Z,993.60
2018-05-07T09:13:21.979Z,993.55
2018-05-07T09:14:22.095Z,993.57
2018-05-07T09:15:22.352Z,993.54
2018-05-07T09:16:22.500Z,993.56
2018-05-07T09:17:22.651Z,993.56
2018-05-07T09:18:22.784Z,993.53
2018-05-07T09:19:22.959Z,993.52
2018-05-07T09:20:23.084Z,993.54
2018-05-07T09:21:23.266Z,993.46
2018-05-07T09:22:23.478Z,993.52
2018-05-07T09:23:23.583Z,993.58
2018-05-07T09:24:23.815Z,993.55
2018-05-07T09:25:23.914Z,993.65
2018-05-07T09:26:24.130Z,993.65
2018-05-07T09:27:24.231Z,993.61
2018-05-07T09:28:24.436Z,993.59
2018-05-07T09:29:24.565Z,993.67
2018-05-07T09:30:24.844Z,993.70
2018-05-07T09:31:25.035Z,993.70
2018-05-07T09:32:25.101Z,993.70
2018-05-07T09:33:25.218Z,993.74
2018-05-07T09:34:25.451Z,993.78
2018-05-07T09:35:25.568Z,993.76
2018-05-07T09:36:25.835Z,993.74
2018-05-07T09:37:25.887Z,993.76
2018-05-07T09:38:26.101Z,993.76
2018-05-07T09:39:26.269Z,993.82
2018-05-07T09:40:26.400Z,993.81
2018-05-07T09:41:26.538Z,993.82
2018-05-07T09:42:26.875Z,993.87
2018-05-07T09:43:27.026Z,993.95
2018-05-07T09:44:27.136Z,994.01
2018-05-07T09:45:27.458Z,994.07
2018-05-07T09:46:27.580Z,994.14
2018-05-07T09:47:27.756Z,994.04
2018-05-07T09:48:27.939Z,993.99
2018-05-07T09:49:28.086Z,994.02
2018-05-07T09:50:28.345Z,993.91
2018-05-07T09:51:28.412Z,993.79
2018-05-07T09:52:28.615Z,993.81
2018-05-07T09:53:28.819Z,993.75
2018-05-07T09:54:28.928Z,993.73
2018-05-07T09:55:29.178Z,993.71
2018-05-07T09:56:29.247Z,993.66
2018-05-07T09:57:29.496Z,993.68
2018-05-07T09:58:29.612Z,993.66
2018-05-07T09:59:29.761Z,993.66
2018-05-07T10:00:29.968Z,993.69
2018-05-07T10:01:30.158Z,993.64
2018-05-07T10:02:30.317Z,993.59
2018-05-07T10:03:30.490Z,993.61
2018-05-07T10:04:30.680Z,993.64
2018-05-07T10:05:30.754Z,993.63
2018-05-07T10:06:30.977Z,993.62
2018-05-07T10:07:31.147Z,993.55
2018-05-07T10:08:31.290Z,993.51
2018-05-07T10:09:31.582Z,993.59
2018-05-07T10:10:31.684Z,993.50
2018-05-07T10:11:31.817Z,993.58
2018-05-07T10:12:31.981Z,993.57
2018-05-07T10:13:32.143Z,993.53
2018-05-07T10:14:32.399Z,993.50
2018-05-07T10:15:32.572Z,993.49
2018-05-07T10:16:32.735Z,993.57
2018-05-07T10:17:32.854Z,993.51
2018-05-07T10:18:33.069Z,993.50
2018-05-07T10:19:33.190Z,993.43
2018-05-07T10:20:33.395Z,993.40
2018-05-07T10:21:33.570Z,993.46
2018-05-07T10:22:33.767Z,993.44
2018-05-07T10:23:33.941Z,993.36
2018-05-07T10:24:34.059Z,993.37
2018-05-07T10:25:34.279Z,993.35
2018-05-07T10:26:34.383Z,993.38
2018-05-07T10:27:34.597Z,993.37
2018-05-07T10:28:34.718Z,993.42
2018-05-07T10:29:34.973Z,993.41
2018-05-07T10:30:35.086Z,993.42
2018-05-07T10:31:35.360Z,993.47
2018-05-07T10:32:35.490Z,993.66
2018-05-07T10:33:35.651Z,994.22
2018-05-07T10:34:35.850Z,994.59
2018-05-07T10:35:36.067Z,994.76
2018-05-07T10:36:36.238Z,995.11
2018-05-07T10:37:36.403Z,994.83
2018-05-07T10:38:36.528Z,994.79
2018-05-07T10:39:36.696Z,995.43
2018-05-07T10:40:36.816Z,995.40
2018-05-07T10:41:37.102Z,995.40
2018-05-07T10:42:37.257Z,995.43
2018-05-07T10:43:37.399Z,995.41
2018-05-07T10:44:37.570Z,995.24
2018-05-07T10:45:37.752Z,995.01
2018-05-07T10:46:37.941Z,994.94
2018-05-07T10:47:38.129Z,994.80
2018-05-07T10:48:38.314Z,994.74
2018-05-07T10:49:38.497Z,994.56
2018-05-07T10:50:38.664Z,994.49
2018-05-07T10:51:38.861Z,994.41
2018-05-07T10:52:39.055Z,994.34
2018-05-07T10:53:39.221Z,994.27
2018-05-07T10:54:39.362Z,994.22
2018-05-07T10:55:39.565Z,994.13
2018-05-07T10:56:39.746Z,994.15
2018-05-07T10:57:39.895Z,994.11
2018-05-07T10:58:40.064Z,993.97
2018-05-07T10:59:40.277Z,993.92
2018-05-07T11:00:40.432Z,993.92
2018-05-07T11:01:40.587Z,993.90
2018-05-07T11:02:40.694Z,993.87
2018-05-07T11:03:40.877Z,993.96
2018-05-07T11:04:41.072Z,993.96
2018-05-07T11:05:41.188Z,993.91
2018-05-07T11:06:41.412Z,993.84
2018-05-07T11:07:41.615Z,993.81
2018-05-07T11:08:41.745Z,993.77
2018-05-07T11:09:41.983Z,993.74
2018-05-07T11:10:42.177Z,993.76
2018-05-07T11:11:42.350Z,993.71
2018-05-07T11:12:42.463Z,993.64
2018-05-07T11:13:42.663Z,993.72
2018-05-07T11:14:42.855Z,993.72
2018-05-07T11:15:43.006Z,993.70
2018-05-07T11:16:43.153Z,993.71
2018-05-07T11:17:43.316Z,993.52
2018-05-07T11:18:43.499Z,993.62
2018-05-07T11:19:43.756Z,993.61
2018-05-07T11:20:43.849Z,993.62
2018-05-07T11:21:43.995Z,993.68
2018-05-07T11:22:44.179Z,993.69
2018-05-07T11:23:44.334Z,993.64
2018-05-07T11:24:44.589Z,993.66
2018-05-07T11:25:44.675Z,993.69
2018-05-07T11:26:44.863Z,993.68
2018-05-07T11:27:45.086Z,993.71
2018-05-07T11:28:45.241Z,993.65
2018-05-07T11:29:45.461Z,993.66
2018-05-07T11:30:45.600Z,993.62
2018-05-07T11:31:45.747Z,993.64
2018-05-07T11:32:45.931Z,993.63
2018-05-07T11:33:46.163Z,993.61
2018-05-07T11:34:46.290Z,993.64
2018-05-07T11:35:46.461Z,993.64
2018-05-07T11:36:46.662Z,993.61
2018-05-07T11:37:46.825Z,993.61
2018-05-07T11:38:47.039Z,993.49
2018-05-07T11:39:47.133Z,993.52
2018-05-07T11:40:47.283Z,993.51
2018-05-07T11:41:47.537Z,993.52
2018-05-07T11:42:47.743Z,993.51
2018-05-07T11:43:47.892Z,993.50
2018-05-07T11:44:48.006Z,993.47
2018-05-07T11:45:48.229Z,993.47
2018-05-07T11:46:48.381Z,993.42
2018-05-07T11:47:48.585Z,993.39
2018-05-07T11:48:48.752Z,993.42
2018-05-07T11:49:48.902Z,993.49
2018-05-07T11:50:49.035Z,993.47
2018-05-07T11:51:49.259Z,993.42
2018-05-07T11:52:49.462Z,993.43
2018-05-07T11:53:49.631Z,993.42
2018-05-07T11:54:49.816Z,993.42
2018-05-07T11:55:50.003Z,993.45
2018-05-07T11:56:50.150Z,993.41
2018-05-07T11:57:50.307Z,993.42
2018-05-07T11:58:50.525Z,993.42
2018-05-07T11:59:50.687Z,993.45
2018-05-07T12:00:50.874Z,993.42
2018-05-07T12:01:51.087Z,993.41
2018-05-07T12:02:51.268Z,993.38
2018-05-07T12:03:51.427Z,993.43
2018-05-07T12:04:51.571Z,993.41
2018-05-07T12:05:51.762Z,993.38
2018-05-07T12:06:51.938Z,993.37
2018-05-07T12:07:52.104Z,993.35
2018-05-07T12:08:52.268Z,993.39
2018-05-07T12:09:52.488Z,993.37
2018-05-07T12:10:52.652Z,993.31
2018-05-07T12:11:52.753Z,993.31
2018-05-07T12:12:52.986Z,993.24
2018-05-07T12:13:53.170Z,993.21
2018-05-07T12:14:53.277Z,993.21
2018-05-07T12:15:53.501Z,993.13
2018-05-07T12:16:53.653Z,993.20
2018-05-07T12:17:53.824Z,993.18
2018-05-07T12:18:53.969Z,993.21
2018-05-07T12:19:54.238Z,993.06
2018-05-07T12:20:54.352Z,992.83
2018-05-07T12:21:54.549Z,992.73
2018-05-07T12:22:54.709Z,992.57
2018-05-07T12:23:54.888Z,992.55
2018-05-07T12:24:55.030Z,992.47
2018-05-07T12:25:55.216Z,992.48
2018-05-07T12:26:55.375Z,992.47
2018-05-07T12:27:55.592Z,992.40
2018-05-07T12:28:55.801Z,992.42
2018-05-07T12:29:56.010Z,992.46
2018-05-07T12:30:56.213Z,992.43
2018-05-07T12:31:56.354Z,992.44
2018-05-07T12:32:56.491Z,992.44
2018-05-07T12:33:56.654Z,992.42
2018-05-07T12:34:56.808Z,992.36
2018-05-07T12:35:56.983Z,992.35
2018-05-07T12:36:57.122Z,992.36
2018-05-07T12:37:57.339Z,992.33
2018-05-07T12:38:57.481Z,992.36
2018-05-07T12:39:57.725Z,992.36
2018-05-07T12:40:57.833Z,992.37
2018-05-07T12:41:58.088Z,992.33
2018-05-07T12:42:58.268Z,992.31
2018-05-07T12:43:58.410Z,992.25
2018-05-07T12:44:58.645Z,992.28
2018-05-07T12:45:58.791Z,992.30
2018-05-07T12:46:58.981Z,992.24
2018-05-07T12:47:59.189Z,992.28
2018-05-07T12:48:59.420Z,992.31
2018-05-07T12:49:59.478Z,992.28
2018-05-07T12:50:59.688Z,992.23
2018-05-07T12:51:59.822Z,992.18
2018-05-07T12:53:00.030Z,992.20
2018-05-07T12:54:00.159Z,992.14
2018-05-07T12:55:00.406Z,992.12
2018-05-07T12:56:00.541Z,992.07
2018-05-07T12:57:00.744Z,992.06
2018-05-07T12:58:00.868Z,992.03
2018-05-07T12:59:01.149Z,992.05
2018-05-07T13:00:01.237Z,992.02
2018-05-07T13:01:01.372Z,991.97
2018-05-07T13:02:01.633Z,992.00
2018-05-07T13:03:01.802Z,991.96
2018-05-07T13:04:01.893Z,991.94
2018-05-07T13:05:02.173Z,991.93
2018-05-07T13:06:02.362Z,991.95
2018-05-07T13:07:02.470Z,991.95
2018-05-07T13:08:02.663Z,991.90
2018-05-07T13:09:02.791Z,991.90
2018-05-07T13:10:02.991Z,991.93
2018-05-07T13:11:03.200Z,991.89
2018-05-07T13:12:03.349Z,991.91
2018-05-07T13:13:03.644Z,991.87
2018-05-07T13:14:03.675Z,991.86
2018-05-07T13:15:03.847Z,991.82
2018-05-07T13:16:04.056Z,991.80
2018-05-07T13:17:04.334Z,991.75
2018-05-07T13:18:04.408Z,991.73
2018-05-07T13:19:04.584Z,991.77
2018-05-07T13:20:04.835Z,991.82
2018-05-07T13:21:04.997Z,991.82
2018-05-07T13:22:05.166Z,991.75
2018-05-07T13:23:05.359Z,991.75
2018-05-07T13:24:05.480Z,991.77
2018-05-07T13:25:05.676Z,991.72
2018-05-07T13:26:05.869Z,991.75
2018-05-07T13:27:06.060Z,991.70
2018-05-07T13:28:06.255Z,991.64
2018-05-07T13:29:06.341Z,991.68
2018-05-07T13:30:06.528Z,991.62
2018-05-07T13:31:06.787Z,991.57
2018-05-07T13:32:06.930Z,991.59
2018-05-07T13:33:07.157Z,991.61
2018-05-07T13:34:07.239Z,991.57
2018-05-07T13:35:07.507Z,991.55
2018-05-07T13:36:07.679Z,991.51
2018-05-07T13:37:07.830Z,991.54
2018-05-07T13:38:07.958Z,991.54
2018-05-07T13:39:08.238Z,991.52
2018-05-07T13:40:08.352Z,991.54
2018-05-07T13:41:08.590Z,991.49
2018-05-07T13:42:08.791Z,991.50
2018-05-07T13:43:08.915Z,991.46
2018-05-07T13:44:09.061Z,991.46
2018-05-07T13:45:09.301Z,991.48
2018-05-07T13:46:09.500Z,991.45
2018-05-07T13:47:09.727Z,991.45
2018-05-07T13:48:09.847Z,991.40
2018-05-07T13:49:10.054Z,991.36
2018-05-07T13:50:10.172Z,991.37
2018-05-07T13:51:10.418Z,991.39
2018-05-07T13:52:10.491Z,991.37
2018-05-07T13:53:10.782Z,991.39
2018-05-07T13:54:10.899Z,991.41
2018-05-07T13:55:11.025Z,991.38
2018-05-07T13:56:11.230Z,991.38
2018-05-07T13:57:11.344Z,991.39
2018-05-07T13:58:11.604Z,991.31
2018-05-07T13:59:11.765Z,991.33
2018-05-07T14:00:11.934Z,991.31
2018-05-07T14:01:12.151Z,991.30
2018-05-07T14:02:12.352Z,991.27
2018-05-07T14:03:12.536Z,991.26
2018-05-07T14:04:12.681Z,991.28
2018-05-07T14:05:12.912Z,991.31
2018-05-07T14:06:13.066Z,991.32
2018-05-07T14:07:13.193Z,991.29
2018-05-07T14:08:13.409Z,991.30
2018-05-07T14:09:13.583Z,991.29
2018-05-07T14:10:13.762Z,991.26
2018-05-07T14:11:13.980Z,991.27
2018-05-07T14:12:14.156Z,991.28
2018-05-07T14:13:14.260Z,991.27
2018-05-07T14:14:14.455Z,991.23
2018-05-07T14:15:14.697Z,991.28
2018-05-07T14:16:14.886Z,991.17
2018-05-07T14:17:15.020Z,991.21
2018-05-07T14:18:15.139Z,991.23
2018-05-07T14:19:15.395Z,991.25
2018-05-07T14:20:15.580Z,991.17
2018-05-07T14:21:15.731Z,991.14
2018-05-07T14:22:15.899Z,991.16
2018-05-07T14:23:16.066Z,991.13
2018-05-07T14:24:16.289Z,991.13
2018-05-07T14:25:16.441Z,991.16
2018-05-07T14:26:16.698Z,991.03
2018-05-07T14:27:16.759Z,991.01
2018-05-07T14:28:16.971Z,991.02
2018-05-07T14:29:17.181Z,991.05
2018-05-07T14:30:17.269Z,991.05
2018-05-07T14:31:17.477Z,991.11
2018-05-07T14:32:17.701Z,991.03
2018-05-07T14:33:17.878Z,991.02
2018-05-07T14:34:17.993Z,991.01
2018-05-07T14:35:18.222Z,991.01
2018-05-07T14:36:18.399Z,991.06
2018-05-07T14:37:18.633Z,990.98
2018-05-07T14:38:18.776Z,991.02
2018-05-07T14:39:18.899Z,991.01
2018-05-07T14:40:19.083Z,990.99
2018-05-07T14:41:19.258Z,991.01
2018-05-07T14:42:19.494Z,990.92
2018-05-07T14:43:19.604Z,990.97
2018-05-07T14:44:19.751Z,990.97
2018-05-07T14:45:19.954Z,991.01
2018-05-07T14:46:20.155Z,991.00
2018-05-07T14:47:20.367Z,990.94
2018-05-07T14:48:20.620Z,990.91
2018-05-07T14:49:20.796Z,990.91
2018-05-07T14:50:21.004Z,990.89
2018-05-07T14:51:21.075Z,990.95
2018-05-07T14:52:21.286Z,990.93
2018-05-07T14:53:21.535Z,990.93
2018-05-07T14:54:21.693Z,990.97
2018-05-07T14:55:21.829Z,990.92
2018-05-07T14:56:22.017Z,990.91
2018-05-07T14:57:22.222Z,990.88
2018-05-07T14:58:22.366Z,990.90
2018-05-07T14:59:22.538Z,990.90
2018-05-07T15:00:22.720Z,990.90
2018-05-07T15:01:22.874Z,990.91
2018-05-07T15:02:23.113Z,990.93
2018-05-07T15:03:23.244Z,990.89
2018-05-07T15:04:23.407Z,990.88
2018-05-07T15:05:23.561Z,990.86
2018-05-07T15:06:23.769Z,990.81
2018-05-07T15:07:23.939Z,990.82
2018-05-07T15:08:24.153Z,990.84
2018-05-07T15:09:24.319Z,990.89
2018-05-07T15:10:24.458Z,990.88
2018-05-07T15:11:25.383Z,990.86
2018-05-07T15:12:24.829Z,990.81
2018-05-07T15:13:24.941Z,990.85
2018-05-07T15:14:25.192Z,990.81
2018-05-07T15:15:25.359Z,990.86
2018-05-07T15:16:25.518Z,990.85
2018-05-07T15:17:25.746Z,990.82
2018-05-07T15:18:25.875Z,990.80
2018-05-07T15:19:25.991Z,990.81
2018-05-07T15:20:26.202Z,990.78
2018-05-07T15:21:26.335Z,990.79
2018-05-07T15:22:26.581Z,990.79
2018-05-07T15:23:26.767Z,990.74
2018-05-07T15:24:26.920Z,990.76
2018-05-07T15:25:27.163Z,990.77
2018-05-07T15:26:27.353Z,990.77
2018-05-07T15:27:27.509Z,990.76
2018-05-07T15:28:27.693Z,990.74
2018-05-07T15:29:27.909Z,990.79
2018-05-07T15:30:28.066Z,990.69
2018-05-07T15:31:28.206Z,990.72
2018-05-07T15:32:28.416Z,990.74
2018-05-07T15:33:28.558Z,990.68
2018-05-07T15:34:28.778Z,990.67
2018-05-07T15:35:28.985Z,990.65
2018-05-07T15:36:29.071Z,990.67
2018-05-07T15:37:29.275Z,990.61
2018-05-07T15:38:29.472Z,990.65
2018-05-07T15:39:29.594Z,990.65
2018-05-07T15:40:29.774Z,990.65
2018-05-07T15:41:29.978Z,990.60
2018-05-07T15:42:30.164Z,990.61
2018-05-07T15:43:30.368Z,990.57
2018-05-07T15:44:30.517Z,990.55
2018-05-07T15:45:30.620Z,990.57
2018-05-07T15:46:30.866Z,990.56
2018-05-07T15:47:31.093Z,990.56
2018-05-07T15:48:31.209Z,990.60
2018-05-07T15:49:31.422Z,990.51
2018-05-07T15:50:31.571Z,990.58
2018-05-07T15:51:31.787Z,990.53
2018-05-07T15:52:31.949Z,990.54
2018-05-07T15:53:32.082Z,990.54
2018-05-07T15:54:32.258Z,990.58
2018-05-07T15:55:32.473Z,990.59
2018-05-07T15:56:32.592Z,990.49
2018-05-07T15:57:32.767Z,990.53
2018-05-07T15:58:32.974Z,990.52
2018-05-07T15:59:33.156Z,990.44
2018-05-07T16:00:33.340Z,990.49
2018-05-07T16:01:33.474Z,990.46
2018-05-07T16:02:33.779Z,990.49
2018-05-07T16:03:33.882Z,990.44
2018-05-07T16:04:34.080Z,990.45
2018-05-07T16:05:34.257Z,990.42
2018-05-07T16:06:34.399Z,990.43
2018-05-07T16:07:34.526Z,990.42
2018-05-07T16:08:34.769Z,990.37
2018-05-07T16:09:34.894Z,990.36
2018-05-07T16:10:35.072Z,990.35
2018-05-07T16:11:35.211Z,990.26
2018-05-07T16:12:35.415Z,990.30
2018-05-07T16:13:35.576Z,990.23
2018-05-07T16:14:35.745Z,990.27
2018-05-07T16:15:35.959Z,990.29
2018-05-07T16:16:36.098Z,990.24
2018-05-07T16:17:36.265Z,990.23
2018-05-07T16:18:36.433Z,990.17
2018-05-07T16:19:36.675Z,990.08
2018-05-07T16:20:36.733Z,990.10
2018-05-07T16:21:36.989Z,990.10
2018-05-07T16:22:37.129Z,990.00
2018-05-07T16:23:37.301Z,989.98
2018-05-07T16:24:37.417Z,989.98
2018-05-07T16:25:37.653Z,989.99
2018-05-07T16:26:37.858Z,990.01
2018-05-07T16:27:37.994Z,990.01
2018-05-07T16:28:38.206Z,990.00
2018-05-07T16:29:38.348Z,989.95
2018-05-07T16:30:38.519Z,989.95
2018-05-07T16:31:38.674Z,989.94
2018-05-07T16:32:38.873Z,989.96
2018-05-07T16:33:39.055Z,989.88
2018-05-07T16:34:39.227Z,989.90
2018-05-07T16:35:39.354Z,989.90
2018-05-07T16:36:39.579Z,989.88
2018-05-07T16:37:39.653Z,989.90
2018-05-07T16:38:39.896Z,989.94
2018-05-07T16:39:40.072Z,989.87
2018-05-07T16:40:40.159Z,989.93
2018-05-07T16:41:40.362Z,989.89
2018-05-07T16:42:40.628Z,989.86
2018-05-07T16:43:40.752Z,989.77
2018-05-07T16:44:40.839Z,989.78
2018-05-07T16:45:41.105Z,989.79
2018-05-07T16:46:41.273Z,989.76
2018-05-07T16:47:41.475Z,989.76
2018-05-07T16:48:41.776Z,989.76
2018-05-07T16:49:41.779Z,989.73
2018-05-07T16:50:41.983Z,989.74
2018-05-07T16:51:42.171Z,989.76
2018-05-07T16:52:42.373Z,989.72
2018-05-07T16:53:42.480Z,989.66
2018-05-07T16:54:42.710Z,989.66
2018-05-07T16:55:42.829Z,989.71